sensor_id;sensor_type;location;lat;lon;timestamp;P1;durP1;ratioP1;P2;durP2;ratioP2
56181;SDS011;51963;46.052;14.544;2022-10-26T00:00:28;15.27;;;7.15;;
56181;SDS011;51963;46.052;14.544;2022-10-26T00:02:55;12.60;;;6.32;;
56181;SDS011;51963;46.052;14.544;2022-10-26T00:05:21;15.77;;;7.18;;
56181;SDS011;51963;46.052;14.544;2022-10-26T00:07:48;16.70;;;6.88;;
56181;SDS011;51963;46.052;14.544;2022-10-26T00:10:15;14.48;;;7.20;;
56181;SDS011;51963;46.052;14.544;2022-10-26T00:12:41;9.88;;;6.03;;
56181;SDS011;51963;46.052;14.544;2022-10-26T00:15:07;21.58;;;7.75;;
56181;SDS011;51963;46.052;14.544;2022-10-26T00:17:33;23.95;;;9.02;;
56181;SDS011;51963;46.052;14.544;2022-10-26T00:19:59;20.27;;;8.95;;
56181;SDS011;51963;46.052;14.544;2022-10-26T00:22:25;18.17;;;8.77;;
56181;SDS011;51963;46.052;14.544;2022-10-26T00:24:51;20.48;;;8.75;;
56181;SDS011;51963;46.052;14.544;2022-10-26T00:27:17;19.70;;;8.80;;
56181;SDS011;51963;46.052;14.544;2022-10-26T00:29:43;16.67;;;9.00;;
56181;SDS011;51963;46.052;14.544;2022-10-26T00:32:08;17.25;;;8.73;;
56181;SDS011;51963;46.052;14.544;2022-10-26T00:34:34;22.48;;;10.32;;
56181;SDS011;51963;46.052;14.544;2022-10-26T00:37:00;26.45;;;10.10;;
56181;SDS011;51963;46.052;14.544;2022-10-26T00:39:25;17.27;;;9.05;;
56181;SDS011;51963;46.052;14.544;2022-10-26T00:41:51;24.33;;;10.35;;
56181;SDS011;51963;46.052;14.544;2022-10-26T00:47:12;24.83;;;10.05;;
56181;SDS011;51963;46.052;14.544;2022-10-26T00:49:41;23.10;;;10.07;;
56181;SDS011;51963;46.052;14.544;2022-10-26T00:52:10;17.80;;;9.27;;
56181;SDS011;51963;46.052;14.544;2022-10-26T00:54:37;19.95;;;8.85;;
56181;SDS011;51963;46.052;14.544;2022-10-26T00:57:03;22.98;;;9.13;;
56181;SDS011;51963;46.052;14.544;2022-10-26T00:59:29;21.10;;;9.23;;
56181;SDS011;51963;46.052;14.544;2022-10-26T01:01:55;26.10;;;10.75;;
56181;SDS011;51963;46.052;14.544;2022-10-26T01:04:21;25.73;;;10.65;;
56181;SDS011;51963;46.052;14.544;2022-10-26T01:06:47;26.23;;;11.15;;
56181;SDS011;51963;46.052;14.544;2022-10-26T01:09:14;26.15;;;10.60;;
56181;SDS011;51963;46.052;14.544;2022-10-26T01:11:41;22.42;;;10.23;;
56181;SDS011;51963;46.052;14.544;2022-10-26T01:14:07;22.02;;;10.30;;
56181;SDS011;51963;46.052;14.544;2022-10-26T01:19:25;25.63;;;8.30;;
56181;SDS011;51963;46.052;14.544;2022-10-26T01:22:37;25.90;;;9.02;;
56181;SDS011;51963;46.052;14.544;2022-10-26T01:27:50;16.00;;;8.55;;
56181;SDS011;51963;46.052;14.544;2022-10-26T01:30:26;20.02;;;8.10;;
56181;SDS011;51963;46.052;14.544;2022-10-26T01:33:18;17.35;;;8.25;;
56181;SDS011;51963;46.052;14.544;2022-10-26T01:36:10;18.83;;;8.23;;
56181;SDS011;51963;46.052;14.544;2022-10-26T01:43:49;33.17;;;9.45;;
56181;SDS011;51963;46.052;14.544;2022-10-26T01:46:20;21.83;;;8.60;;
56181;SDS011;51963;46.052;14.544;2022-10-26T01:48:49;20.98;;;9.15;;
56181;SDS011;51963;46.052;14.544;2022-10-26T01:51:18;16.63;;;8.50;;
56181;SDS011;51963;46.052;14.544;2022-10-26T01:53:46;16.85;;;8.07;;
56181;SDS011;51963;46.052;14.544;2022-10-26T01:56:13;29.05;;;8.93;;
56181;SDS011;51963;46.052;14.544;2022-10-26T01:59:06;19.10;;;8.30;;
56181;SDS011;51963;46.052;14.544;2022-10-26T02:07:29;15.57;;;6.93;;
56181;SDS011;51963;46.052;14.544;2022-10-26T02:12:37;15.00;;;6.50;;
56181;SDS011;51963;46.052;14.544;2022-10-26T02:15:13;15.15;;;6.65;;
56181;SDS011;51963;46.052;14.544;2022-10-26T02:17:53;12.30;;;5.90;;
56181;SDS011;51963;46.052;14.544;2022-10-26T02:20:24;21.83;;;6.95;;
56181;SDS011;51963;46.052;14.544;2022-10-26T02:23:01;9.48;;;5.90;;
56181;SDS011;51963;46.052;14.544;2022-10-26T02:25:30;13.88;;;6.28;;
56181;SDS011;51963;46.052;14.544;2022-10-26T02:28:02;20.15;;;6.00;;
56181;SDS011;51963;46.052;14.544;2022-10-26T02:30:32;10.82;;;6.07;;
56181;SDS011;51963;46.052;14.544;2022-10-26T02:32:59;12.00;;;6.80;;
56181;SDS011;51963;46.052;14.544;2022-10-26T02:35:29;13.57;;;6.07;;
56181;SDS011;51963;46.052;14.544;2022-10-26T02:37:59;19.88;;;6.90;;
56181;SDS011;51963;46.052;14.544;2022-10-26T02:40:28;37.50;;;8.43;;
56181;SDS011;51963;46.052;14.544;2022-10-26T02:42:55;38.22;;;9.50;;
56181;SDS011;51963;46.052;14.544;2022-10-26T02:45:26;27.88;;;8.88;;
56181;SDS011;51963;46.052;14.544;2022-10-26T02:47:57;24.05;;;8.05;;
56181;SDS011;51963;46.052;14.544;2022-10-26T02:50:25;22.80;;;9.13;;
56181;SDS011;51963;46.052;14.544;2022-10-26T02:55:31;15.20;;;7.53;;
56181;SDS011;51963;46.052;14.544;2022-10-26T02:58:05;23.38;;;7.38;;
56181;SDS011;51963;46.052;14.544;2022-10-26T03:00:36;25.60;;;7.90;;
56181;SDS011;51963;46.052;14.544;2022-10-26T03:03:02;18.50;;;8.43;;
56181;SDS011;51963;46.052;14.544;2022-10-26T03:05:30;20.10;;;8.10;;
56181;SDS011;51963;46.052;14.544;2022-10-26T03:07:57;18.07;;;7.63;;
56181;SDS011;51963;46.052;14.544;2022-10-26T03:10:23;16.60;;;7.70;;
56181;SDS011;51963;46.052;14.544;2022-10-26T03:12:49;17.17;;;8.05;;
56181;SDS011;51963;46.052;14.544;2022-10-26T03:15:16;13.90;;;6.97;;
56181;SDS011;51963;46.052;14.544;2022-10-26T03:17:42;18.23;;;7.40;;
56181;SDS011;51963;46.052;14.544;2022-10-26T03:20:08;28.65;;;8.98;;
56181;SDS011;51963;46.052;14.544;2022-10-26T03:22:35;17.23;;;7.95;;
56181;SDS011;51963;46.052;14.544;2022-10-26T03:25:00;16.80;;;7.22;;
56181;SDS011;51963;46.052;14.544;2022-10-26T03:27:26;17.48;;;7.93;;
56181;SDS011;51963;46.052;14.544;2022-10-26T03:29:52;16.13;;;7.28;;
56181;SDS011;51963;46.052;14.544;2022-10-26T03:32:18;15.30;;;7.80;;
56181;SDS011;51963;46.052;14.544;2022-10-26T03:34:44;19.00;;;7.55;;
56181;SDS011;51963;46.052;14.544;2022-10-26T03:37:10;17.05;;;8.48;;
56181;SDS011;51963;46.052;14.544;2022-10-26T03:39:36;16.98;;;8.15;;
56181;SDS011;51963;46.052;14.544;2022-10-26T03:42:02;16.60;;;7.70;;
56181;SDS011;51963;46.052;14.544;2022-10-26T03:44:27;15.93;;;7.05;;
56181;SDS011;51963;46.052;14.544;2022-10-26T03:46:53;15.70;;;7.13;;
56181;SDS011;51963;46.052;14.544;2022-10-26T03:49:19;18.63;;;8.32;;
56181;SDS011;51963;46.052;14.544;2022-10-26T03:51:45;19.73;;;7.57;;
56181;SDS011;51963;46.052;14.544;2022-10-26T03:54:13;29.30;;;7.88;;
56181;SDS011;51963;46.052;14.544;2022-10-26T03:56:39;15.23;;;7.70;;
56181;SDS011;51963;46.052;14.544;2022-10-26T03:59:05;16.02;;;7.88;;
56181;SDS011;51963;46.052;14.544;2022-10-26T04:01:30;15.23;;;8.30;;
56181;SDS011;51963;46.052;14.544;2022-10-26T04:03:56;16.10;;;7.63;;
56181;SDS011;51963;46.052;14.544;2022-10-26T04:06:22;18.25;;;7.88;;
56181;SDS011;51963;46.052;14.544;2022-10-26T04:08:47;19.83;;;7.60;;
56181;SDS011;51963;46.052;14.544;2022-10-26T04:11:13;16.50;;;6.55;;
56181;SDS011;51963;46.052;14.544;2022-10-26T04:13:39;27.98;;;8.82;;
56181;SDS011;51963;46.052;14.544;2022-10-26T04:16:05;19.58;;;8.40;;
56181;SDS011;51963;46.052;14.544;2022-10-26T04:18:31;24.58;;;8.05;;
56181;SDS011;51963;46.052;14.544;2022-10-26T04:20:59;19.27;;;7.93;;
56181;SDS011;51963;46.052;14.544;2022-10-26T04:23:26;17.48;;;7.45;;
56181;SDS011;51963;46.052;14.544;2022-10-26T04:25:52;18.55;;;7.35;;
56181;SDS011;51963;46.052;14.544;2022-10-26T04:28:17;15.95;;;7.80;;
56181;SDS011;51963;46.052;14.544;2022-10-26T04:30:43;16.10;;;7.57;;
56181;SDS011;51963;46.052;14.544;2022-10-26T04:33:09;15.88;;;6.68;;
56181;SDS011;51963;46.052;14.544;2022-10-26T04:35:34;16.60;;;6.95;;
56181;SDS011;51963;46.052;14.544;2022-10-26T04:38:01;16.20;;;7.43;;
56181;SDS011;51963;46.052;14.544;2022-10-26T04:40:32;15.93;;;7.50;;
56181;SDS011;51963;46.052;14.544;2022-10-26T04:42:58;17.85;;;7.80;;
56181;SDS011;51963;46.052;14.544;2022-10-26T04:45:24;18.75;;;7.93;;
56181;SDS011;51963;46.052;14.544;2022-10-26T04:48:03;14.60;;;7.07;;
56181;SDS011;51963;46.052;14.544;2022-10-26T04:50:34;16.42;;;7.22;;
56181;SDS011;51963;46.052;14.544;2022-10-26T04:53:02;18.83;;;7.63;;
56181;SDS011;51963;46.052;14.544;2022-10-26T04:55:29;13.63;;;6.55;;
56181;SDS011;51963;46.052;14.544;2022-10-26T04:57:55;17.13;;;6.95;;
56181;SDS011;51963;46.052;14.544;2022-10-26T05:00:21;14.85;;;6.10;;
56181;SDS011;51963;46.052;14.544;2022-10-26T05:02:46;14.85;;;7.10;;
56181;SDS011;51963;46.052;14.544;2022-10-26T05:05:12;16.98;;;7.35;;
56181;SDS011;51963;46.052;14.544;2022-10-26T05:07:38;17.65;;;7.80;;
56181;SDS011;51963;46.052;14.544;2022-10-26T05:10:04;16.88;;;8.43;;
56181;SDS011;51963;46.052;14.544;2022-10-26T05:12:30;17.73;;;7.70;;
56181;SDS011;51963;46.052;14.544;2022-10-26T05:14:55;17.50;;;7.97;;
56181;SDS011;51963;46.052;14.544;2022-10-26T05:17:26;19.30;;;7.70;;
56181;SDS011;51963;46.052;14.544;2022-10-26T05:19:52;14.80;;;7.25;;
56181;SDS011;51963;46.052;14.544;2022-10-26T05:22:20;10.15;;;6.40;;
56181;SDS011;51963;46.052;14.544;2022-10-26T05:24:46;16.80;;;7.38;;
56181;SDS011;51963;46.052;14.544;2022-10-26T05:27:12;11.45;;;6.45;;
56181;SDS011;51963;46.052;14.544;2022-10-26T05:29:38;16.95;;;6.60;;
56181;SDS011;51963;46.052;14.544;2022-10-26T05:32:03;11.63;;;5.53;;
56181;SDS011;51963;46.052;14.544;2022-10-26T05:34:29;10.70;;;5.45;;
56181;SDS011;51963;46.052;14.544;2022-10-26T05:36:55;12.45;;;5.85;;
56181;SDS011;51963;46.052;14.544;2022-10-26T05:39:21;11.25;;;5.68;;
56181;SDS011;51963;46.052;14.544;2022-10-26T05:41:47;15.57;;;7.60;;
56181;SDS011;51963;46.052;14.544;2022-10-26T05:44:13;11.40;;;6.15;;
56181;SDS011;51963;46.052;14.544;2022-10-26T05:46:38;13.20;;;5.80;;
56181;SDS011;51963;46.052;14.544;2022-10-26T05:49:04;9.38;;;5.45;;
56181;SDS011;51963;46.052;14.544;2022-10-26T05:51:31;15.90;;;6.80;;
56181;SDS011;51963;46.052;14.544;2022-10-26T05:53:58;12.18;;;6.05;;
56181;SDS011;51963;46.052;14.544;2022-10-26T05:56:34;10.20;;;6.03;;
56181;SDS011;51963;46.052;14.544;2022-10-26T05:59:02;17.58;;;6.97;;
56181;SDS011;51963;46.052;14.544;2022-10-26T06:01:33;15.43;;;7.78;;
56181;SDS011;51963;46.052;14.544;2022-10-26T06:07:00;14.13;;;6.90;;
56181;SDS011;51963;46.052;14.544;2022-10-26T06:09:26;13.95;;;7.28;;
56181;SDS011;51963;46.052;14.544;2022-10-26T06:11:52;13.77;;;6.80;;
56181;SDS011;51963;46.052;14.544;2022-10-26T06:14:18;14.13;;;6.45;;
56181;SDS011;51963;46.052;14.544;2022-10-26T06:30:18;11.55;;;6.20;;
56181;SDS011;51963;46.052;14.544;2022-10-26T06:32:47;36.00;;;17.08;;
56181;SDS011;51963;46.052;14.544;2022-10-26T06:37:53;17.20;;;7.22;;
56181;SDS011;51963;46.052;14.544;2022-10-26T06:40:21;20.33;;;7.25;;
56181;SDS011;51963;46.052;14.544;2022-10-26T06:42:47;15.90;;;7.32;;
56181;SDS011;51963;46.052;14.544;2022-10-26T06:45:13;22.05;;;8.10;;
56181;SDS011;51963;46.052;14.544;2022-10-26T06:47:43;16.37;;;7.10;;
56181;SDS011;51963;46.052;14.544;2022-10-26T06:52:47;22.73;;;7.95;;
56181;SDS011;51963;46.052;14.544;2022-10-26T06:55:18;18.20;;;8.23;;
56181;SDS011;51963;46.052;14.544;2022-10-26T06:57:44;21.25;;;8.05;;
56181;SDS011;51963;46.052;14.544;2022-10-26T07:00:15;16.63;;;7.43;;
56181;SDS011;51963;46.052;14.544;2022-10-26T07:02:44;18.05;;;7.20;;
56181;SDS011;51963;46.052;14.544;2022-10-26T07:05:10;22.20;;;7.63;;
56181;SDS011;51963;46.052;14.544;2022-10-26T07:07:43;19.85;;;7.40;;
56181;SDS011;51963;46.052;14.544;2022-10-26T07:10:10;21.40;;;8.52;;
56181;SDS011;51963;46.052;14.544;2022-10-26T07:12:37;19.75;;;7.68;;
56181;SDS011;51963;46.052;14.544;2022-10-26T07:15:03;17.42;;;6.70;;
56181;SDS011;51963;46.052;14.544;2022-10-26T07:17:30;19.48;;;7.03;;
56181;SDS011;51963;46.052;14.544;2022-10-26T07:19:56;16.38;;;7.03;;
56181;SDS011;51963;46.052;14.544;2022-10-26T07:22:22;16.42;;;7.15;;
56181;SDS011;51963;46.052;14.544;2022-10-26T07:24:49;18.25;;;7.45;;
56181;SDS011;51963;46.052;14.544;2022-10-26T07:27:16;17.10;;;7.13;;
56181;SDS011;51963;46.052;14.544;2022-10-26T07:29:45;21.38;;;7.85;;
56181;SDS011;51963;46.052;14.544;2022-10-26T07:32:11;19.50;;;7.75;;
56181;SDS011;51963;46.052;14.544;2022-10-26T07:34:36;17.85;;;6.50;;
56181;SDS011;51963;46.052;14.544;2022-10-26T07:37:02;13.85;;;5.97;;
56181;SDS011;51963;46.052;14.544;2022-10-26T07:39:28;20.00;;;6.72;;
56181;SDS011;51963;46.052;14.544;2022-10-26T07:41:57;17.40;;;6.95;;
56181;SDS011;51963;46.052;14.544;2022-10-26T07:44:23;19.08;;;6.53;;
56181;SDS011;51963;46.052;14.544;2022-10-26T07:46:48;20.27;;;6.68;;
56181;SDS011;51963;46.052;14.544;2022-10-26T07:49:14;20.27;;;7.47;;
56181;SDS011;51963;46.052;14.544;2022-10-26T07:51:40;19.23;;;7.95;;
56181;SDS011;51963;46.052;14.544;2022-10-26T07:54:05;17.55;;;7.15;;
56181;SDS011;51963;46.052;14.544;2022-10-26T07:56:31;12.75;;;6.57;;
56181;SDS011;51963;46.052;14.544;2022-10-26T07:58:57;23.67;;;8.00;;
56181;SDS011;51963;46.052;14.544;2022-10-26T08:01:23;20.45;;;7.35;;
56181;SDS011;51963;46.052;14.544;2022-10-26T08:03:52;17.45;;;7.25;;
56181;SDS011;51963;46.052;14.544;2022-10-26T08:06:19;24.42;;;8.10;;
56181;SDS011;51963;46.052;14.544;2022-10-26T08:08:46;24.73;;;9.43;;
56181;SDS011;51963;46.052;14.544;2022-10-26T08:11:12;25.08;;;10.05;;
56181;SDS011;51963;46.052;14.544;2022-10-26T08:13:38;26.83;;;9.32;;
56181;SDS011;51963;46.052;14.544;2022-10-26T08:16:04;22.60;;;9.15;;
56181;SDS011;51963;46.052;14.544;2022-10-26T08:18:31;24.10;;;9.02;;
56181;SDS011;51963;46.052;14.544;2022-10-26T08:21:00;23.75;;;9.77;;
56181;SDS011;51963;46.052;14.544;2022-10-26T08:23:36;27.70;;;10.07;;
56181;SDS011;51963;46.052;14.544;2022-10-26T08:26:02;26.58;;;9.90;;
56181;SDS011;51963;46.052;14.544;2022-10-26T08:28:28;32.10;;;9.60;;
56181;SDS011;51963;46.052;14.544;2022-10-26T08:30:54;30.27;;;9.13;;
56181;SDS011;51963;46.052;14.544;2022-10-26T08:33:21;23.85;;;8.65;;
56181;SDS011;51963;46.052;14.544;2022-10-26T08:35:48;30.70;;;9.40;;
56181;SDS011;51963;46.052;14.544;2022-10-26T08:38:13;25.52;;;9.48;;
56181;SDS011;51963;46.052;14.544;2022-10-26T08:40:40;27.98;;;9.10;;
56181;SDS011;51963;46.052;14.544;2022-10-26T08:45:53;51.15;;;18.17;;
56181;SDS011;51963;46.052;14.544;2022-10-26T08:48:25;53.13;;;20.55;;
56181;SDS011;51963;46.052;14.544;2022-10-26T08:50:56;55.88;;;21.00;;
56181;SDS011;51963;46.052;14.544;2022-10-26T08:56:24;50.63;;;19.30;;
56181;SDS011;51963;46.052;14.544;2022-10-26T08:58:55;34.13;;;15.43;;
56181;SDS011;51963;46.052;14.544;2022-10-26T09:01:29;34.45;;;14.25;;
56181;SDS011;51963;46.052;14.544;2022-10-26T09:03:56;32.35;;;13.20;;
56181;SDS011;51963;46.052;14.544;2022-10-26T09:09:09;28.83;;;11.65;;
56181;SDS011;51963;46.052;14.544;2022-10-26T09:18:10;34.72;;;13.93;;
56181;SDS011;51963;46.052;14.544;2022-10-26T09:26:30;34.00;;;13.65;;
56181;SDS011;51963;46.052;14.544;2022-10-26T09:29:01;29.27;;;12.73;;
56181;SDS011;51963;46.052;14.544;2022-10-26T09:31:31;33.47;;;13.73;;
56181;SDS011;51963;46.052;14.544;2022-10-26T09:34:03;28.52;;;12.73;;
56181;SDS011;51963;46.052;14.544;2022-10-26T09:36:31;25.70;;;11.75;;
56181;SDS011;51963;46.052;14.544;2022-10-26T09:39:18;31.73;;;13.00;;
56181;SDS011;51963;46.052;14.544;2022-10-26T09:41:55;34.55;;;14.15;;
56181;SDS011;51963;46.052;14.544;2022-10-26T09:44:30;32.33;;;13.85;;
56181;SDS011;51963;46.052;14.544;2022-10-26T09:47:13;34.95;;;14.95;;
56181;SDS011;51963;46.052;14.544;2022-10-26T09:49:49;32.27;;;14.90;;
56181;SDS011;51963;46.052;14.544;2022-10-26T09:52:20;29.75;;;14.35;;
56181;SDS011;51963;46.052;14.544;2022-10-26T09:54:46;29.65;;;14.85;;
56181;SDS011;51963;46.052;14.544;2022-10-26T09:57:15;35.00;;;15.85;;
56181;SDS011;51963;46.052;14.544;2022-10-26T09:59:44;31.75;;;15.23;;
56181;SDS011;51963;46.052;14.544;2022-10-26T10:05:19;32.63;;;15.18;;
56181;SDS011;51963;46.052;14.544;2022-10-26T10:10:52;33.33;;;15.88;;
56181;SDS011;51963;46.052;14.544;2022-10-26T10:13:25;30.98;;;13.98;;
56181;SDS011;51963;46.052;14.544;2022-10-26T10:15:54;24.92;;;12.70;;
56181;SDS011;51963;46.052;14.544;2022-10-26T10:18:32;26.40;;;13.40;;
56181;SDS011;51963;46.052;14.544;2022-10-26T10:23:30;28.45;;;14.18;;
56181;SDS011;51963;46.052;14.544;2022-10-26T10:25:58;27.02;;;13.52;;
56181;SDS011;51963;46.052;14.544;2022-10-26T10:28:28;28.80;;;13.73;;
56181;SDS011;51963;46.052;14.544;2022-10-26T10:30:55;27.65;;;15.32;;
56181;SDS011;51963;46.052;14.544;2022-10-26T10:33:40;27.23;;;12.75;;
56181;SDS011;51963;46.052;14.544;2022-10-26T10:36:08;25.10;;;12.90;;
56181;SDS011;51963;46.052;14.544;2022-10-26T10:38:39;26.08;;;12.88;;
56181;SDS011;51963;46.052;14.544;2022-10-26T10:43:46;25.58;;;12.85;;
56181;SDS011;51963;46.052;14.544;2022-10-26T10:46:17;24.40;;;12.88;;
56181;SDS011;51963;46.052;14.544;2022-10-26T10:48:45;23.02;;;13.20;;
56181;SDS011;51963;46.052;14.544;2022-10-26T10:51:12;28.85;;;13.63;;
56181;SDS011;51963;46.052;14.544;2022-10-26T10:53:48;21.20;;;12.23;;
56181;SDS011;51963;46.052;14.544;2022-10-26T11:04:37;21.83;;;13.27;;
56181;SDS011;51963;46.052;14.544;2022-10-26T11:07:21;20.83;;;12.38;;
56181;SDS011;51963;46.052;14.544;2022-10-26T11:09:49;20.08;;;12.32;;
56181;SDS011;51963;46.052;14.544;2022-10-26T11:12:18;19.58;;;12.23;;
56181;SDS011;51963;46.052;14.544;2022-10-26T11:15:01;17.52;;;10.95;;
56181;SDS011;51963;46.052;14.544;2022-10-26T11:17:37;19.95;;;12.38;;
56181;SDS011;51963;46.052;14.544;2022-10-26T11:20:18;19.73;;;10.45;;
56181;SDS011;51963;46.052;14.544;2022-10-26T11:28:04;16.63;;;10.20;;
56181;SDS011;51963;46.052;14.544;2022-10-26T11:30:42;17.63;;;10.35;;
56181;SDS011;51963;46.052;14.544;2022-10-26T11:33:18;16.15;;;10.70;;
56181;SDS011;51963;46.052;14.544;2022-10-26T11:38:45;15.27;;;9.73;;
56181;SDS011;51963;46.052;14.544;2022-10-26T11:41:28;16.15;;;8.90;;
56181;SDS011;51963;46.052;14.544;2022-10-26T11:46:45;13.20;;;9.40;;
56181;SDS011;51963;46.052;14.544;2022-10-26T11:51:54;16.02;;;9.82;;
56181;SDS011;51963;46.052;14.544;2022-10-26T11:57:01;15.43;;;9.02;;
56181;SDS011;51963;46.052;14.544;2022-10-26T11:59:30;14.55;;;8.80;;
56181;SDS011;51963;46.052;14.544;2022-10-26T12:04:35;15.00;;;8.55;;
56181;SDS011;51963;46.052;14.544;2022-10-26T12:07:06;15.68;;;9.38;;
56181;SDS011;51963;46.052;14.544;2022-10-26T12:09:36;12.63;;;8.75;;
56181;SDS011;51963;46.052;14.544;2022-10-26T12:15:19;12.23;;;8.07;;
56181;SDS011;51963;46.052;14.544;2022-10-26T12:17:50;14.98;;;9.02;;
56181;SDS011;51963;46.052;14.544;2022-10-26T12:23:10;13.68;;;8.02;;
56181;SDS011;51963;46.052;14.544;2022-10-26T12:25:37;14.45;;;8.23;;
56181;SDS011;51963;46.052;14.544;2022-10-26T12:28:03;18.93;;;7.73;;
56181;SDS011;51963;46.052;14.544;2022-10-26T12:30:30;13.13;;;8.10;;
56181;SDS011;51963;46.052;14.544;2022-10-26T12:32:58;11.80;;;7.57;;
56181;SDS011;51963;46.052;14.544;2022-10-26T12:41:18;10.63;;;7.32;;
56181;SDS011;51963;46.052;14.544;2022-10-26T12:43:46;9.57;;;7.10;;
56181;SDS011;51963;46.052;14.544;2022-10-26T12:48:44;11.70;;;7.68;;
56181;SDS011;51963;46.052;14.544;2022-10-26T12:53:48;11.45;;;7.07;;
56181;SDS011;51963;46.052;14.544;2022-10-26T12:59:37;11.25;;;7.07;;
56181;SDS011;51963;46.052;14.544;2022-10-26T13:02:42;11.75;;;7.10;;
56181;SDS011;51963;46.052;14.544;2022-10-26T13:07:44;11.15;;;7.03;;
56181;SDS011;51963;46.052;14.544;2022-10-26T13:12:57;10.40;;;6.60;;
56181;SDS011;51963;46.052;14.544;2022-10-26T13:20:25;11.88;;;7.28;;
56181;SDS011;51963;46.052;14.544;2022-10-26T13:22:51;12.30;;;6.57;;
56181;SDS011;51963;46.052;14.544;2022-10-26T13:25:20;14.68;;;7.13;;
56181;SDS011;51963;46.052;14.544;2022-10-26T13:27:56;10.38;;;6.93;;
56181;SDS011;51963;46.052;14.544;2022-10-26T13:30:44;9.23;;;6.78;;
56181;SDS011;51963;46.052;14.544;2022-10-26T13:33:15;11.07;;;7.00;;
56181;SDS011;51963;46.052;14.544;2022-10-26T13:35:46;9.27;;;6.60;;
56181;SDS011;51963;46.052;14.544;2022-10-26T13:38:12;8.82;;;6.13;;
56181;SDS011;51963;46.052;14.544;2022-10-26T13:40:45;13.85;;;6.90;;
56181;SDS011;51963;46.052;14.544;2022-10-26T13:43:21;12.73;;;6.25;;
56181;SDS011;51963;46.052;14.544;2022-10-26T13:45:53;15.88;;;6.68;;
56181;SDS011;51963;46.052;14.544;2022-10-26T13:48:40;11.02;;;6.30;;
56181;SDS011;51963;46.052;14.544;2022-10-26T13:51:12;9.38;;;6.18;;
56181;SDS011;51963;46.052;14.544;2022-10-26T13:56:17;10.65;;;6.13;;
56181;SDS011;51963;46.052;14.544;2022-10-26T14:01:39;7.90;;;6.03;;
56181;SDS011;51963;46.052;14.544;2022-10-26T14:04:15;12.02;;;6.38;;
56181;SDS011;51963;46.052;14.544;2022-10-26T14:06:44;9.05;;;5.43;;
56181;SDS011;51963;46.052;14.544;2022-10-26T14:09:14;9.82;;;6.20;;
56181;SDS011;51963;46.052;14.544;2022-10-26T14:11:43;8.65;;;5.90;;
56181;SDS011;51963;46.052;14.544;2022-10-26T14:14:18;8.50;;;6.20;;
56181;SDS011;51963;46.052;14.544;2022-10-26T14:16:49;12.32;;;6.40;;
56181;SDS011;51963;46.052;14.544;2022-10-26T14:19:19;13.32;;;6.35;;
56181;SDS011;51963;46.052;14.544;2022-10-26T14:22:13;11.57;;;6.63;;
56181;SDS011;51963;46.052;14.544;2022-10-26T14:24:55;12.00;;;6.38;;
56181;SDS011;51963;46.052;14.544;2022-10-26T14:27:29;10.52;;;6.38;;
56181;SDS011;51963;46.052;14.544;2022-10-26T14:29:57;12.50;;;6.63;;
56181;SDS011;51963;46.052;14.544;2022-10-26T14:32:29;13.48;;;7.15;;
56181;SDS011;51963;46.052;14.544;2022-10-26T14:35:00;11.60;;;6.78;;
56181;SDS011;51963;46.052;14.544;2022-10-26T14:40:04;10.02;;;7.50;;
56181;SDS011;51963;46.052;14.544;2022-10-26T14:42:37;10.95;;;7.35;;
56181;SDS011;51963;46.052;14.544;2022-10-26T14:45:05;12.23;;;7.20;;
56181;SDS011;51963;46.052;14.544;2022-10-26T14:47:44;13.65;;;8.10;;
56181;SDS011;51963;46.052;14.544;2022-10-26T14:50:20;14.75;;;7.90;;
56181;SDS011;51963;46.052;14.544;2022-10-26T14:53:18;16.45;;;7.82;;
56181;SDS011;51963;46.052;14.544;2022-10-26T14:55:48;16.07;;;7.90;;
56181;SDS011;51963;46.052;14.544;2022-10-26T14:58:21;12.35;;;7.90;;
56181;SDS011;51963;46.052;14.544;2022-10-26T15:03:43;17.08;;;8.05;;
56181;SDS011;51963;46.052;14.544;2022-10-26T15:09:03;16.20;;;8.30;;
56181;SDS011;51963;46.052;14.544;2022-10-26T15:11:31;13.23;;;7.60;;
56181;SDS011;51963;46.052;14.544;2022-10-26T15:13:59;16.45;;;7.70;;
56181;SDS011;51963;46.052;14.544;2022-10-26T15:16:26;11.93;;;7.60;;
56181;SDS011;51963;46.052;14.544;2022-10-26T15:19:09;15.30;;;8.88;;
56181;SDS011;51963;46.052;14.544;2022-10-26T15:21:46;12.70;;;8.77;;
56181;SDS011;51963;46.052;14.544;2022-10-26T15:26:51;20.30;;;8.95;;
56181;SDS011;51963;46.052;14.544;2022-10-26T15:32:04;11.02;;;7.65;;
56181;SDS011;51963;46.052;14.544;2022-10-26T15:34:45;12.23;;;7.28;;
56181;SDS011;51963;46.052;14.544;2022-10-26T15:37:29;15.90;;;7.90;;
56181;SDS011;51963;46.052;14.544;2022-10-26T15:39:56;14.45;;;7.95;;
56181;SDS011;51963;46.052;14.544;2022-10-26T15:42:24;14.10;;;8.20;;
56181;SDS011;51963;46.052;14.544;2022-10-26T15:44:51;18.25;;;8.27;;
56181;SDS011;51963;46.052;14.544;2022-10-26T15:47:17;15.85;;;8.80;;
56181;SDS011;51963;46.052;14.544;2022-10-26T15:49:46;18.80;;;9.00;;
56181;SDS011;51963;46.052;14.544;2022-10-26T15:52:12;15.40;;;9.48;;
56181;SDS011;51963;46.052;14.544;2022-10-26T15:54:38;17.35;;;10.50;;
56181;SDS011;51963;46.052;14.544;2022-10-26T15:57:04;17.75;;;9.82;;
56181;SDS011;51963;46.052;14.544;2022-10-26T16:01:57;15.15;;;8.90;;
56181;SDS011;51963;46.052;14.544;2022-10-26T16:04:24;15.70;;;9.13;;
56181;SDS011;51963;46.052;14.544;2022-10-26T16:06:50;15.98;;;8.98;;
56181;SDS011;51963;46.052;14.544;2022-10-26T16:09:16;21.33;;;11.10;;
56181;SDS011;51963;46.052;14.544;2022-10-26T16:11:43;23.40;;;9.18;;
56181;SDS011;51963;46.052;14.544;2022-10-26T16:14:09;19.98;;;9.48;;
56181;SDS011;51963;46.052;14.544;2022-10-26T16:16:37;17.00;;;9.90;;
56181;SDS011;51963;46.052;14.544;2022-10-26T16:19:03;16.85;;;8.88;;
56181;SDS011;51963;46.052;14.544;2022-10-26T16:21:29;21.67;;;9.07;;
56181;SDS011;51963;46.052;14.544;2022-10-26T16:23:55;17.00;;;8.68;;
56181;SDS011;51963;46.052;14.544;2022-10-26T16:26:21;16.92;;;8.95;;
56181;SDS011;51963;46.052;14.544;2022-10-26T16:28:48;17.52;;;8.88;;
56181;SDS011;51963;46.052;14.544;2022-10-26T16:31:15;16.75;;;9.15;;
56181;SDS011;51963;46.052;14.544;2022-10-26T16:33:43;16.63;;;8.98;;
56181;SDS011;51963;46.052;14.544;2022-10-26T16:36:09;19.83;;;9.32;;
56181;SDS011;51963;46.052;14.544;2022-10-26T16:38:36;19.23;;;9.27;;
56181;SDS011;51963;46.052;14.544;2022-10-26T16:43:37;17.25;;;8.80;;
56181;SDS011;51963;46.052;14.544;2022-10-26T16:46:05;17.27;;;9.13;;
56181;SDS011;51963;46.052;14.544;2022-10-26T16:48:36;17.58;;;9.07;;
56181;SDS011;51963;46.052;14.544;2022-10-26T16:51:13;17.10;;;8.57;;
56181;SDS011;51963;46.052;14.544;2022-10-26T16:53:40;16.38;;;9.20;;
56181;SDS011;51963;46.052;14.544;2022-10-26T16:56:10;22.23;;;9.48;;
56181;SDS011;51963;46.052;14.544;2022-10-26T16:58:38;19.15;;;9.25;;
56181;SDS011;51963;46.052;14.544;2022-10-26T17:01:05;16.90;;;9.00;;
56181;SDS011;51963;46.052;14.544;2022-10-26T17:03:32;22.33;;;10.82;;
56181;SDS011;51963;46.052;14.544;2022-10-26T17:05:58;20.55;;;9.23;;
56181;SDS011;51963;46.052;14.544;2022-10-26T17:08:26;24.63;;;12.68;;
56181;SDS011;51963;46.052;14.544;2022-10-26T17:10:52;24.20;;;11.05;;